Time;durP1;ratioP1;P1;durP2;ratioP2;P2;SDS_P1;SDS_P2;PMS_P1;PMS_P2;Temp;Humidity;BMP_temperature;BMP_pressure;BME280_temperature;BME280_humidity;BME280_pressure;Samples;Min_cycle;Max_cycle;Signal;HPM_P1;HPM_P2
2022/01/23 00:00:26;;;;;;;11.77;7.35;;;5.70;99.90;;;;;;5130728;27;20488;-79
2022/01/23 00:02:55;;;;;;;11.10;7.38;;;5.70;99.90;;;;;;5136213;27;20066;-78
2022/01/23 00:05:21;;;;;;;11.80;7.82;;;5.70;99.90;;;;;;5136608;27;20059;-73
2022/01/23 00:07:47;;;;;;;11.38;7.57;;;5.70;99.90;;;;;;5134737;27;20066;-79
2022/01/23 00:10:14;;;;;;;12.88;7.80;;;5.70;99.90;;;;;;5118499;27;20043;-79
2022/01/23 00:12:48;;;;;;;9.65;7.10;;;5.70;99.90;;;;;;5135435;27;20249;-78
2022/01/23 00:17:58;;;;;;;11.43;7.35;;;5.70;99.90;;;;;;5135002;27;20439;-79
2022/01/23 00:20:24;;;;;;;11.30;7.50;;;5.70;99.90;;;;;;5115967;27;20084;-77
2022/01/23 00:22:55;;;;;;;9.38;7.45;;;5.60;99.90;;;;;;5121031;27;20219;-79
2022/01/23 00:30:50;;;;;;;9.38;7.53;;;5.70;99.90;;;;;;5136933;27;20097;-78
2022/01/23 00:33:17;;;;;;;10.32;7.20;;;5.70;99.90;;;;;;5135464;27;20035;-79
2022/01/23 00:35:44;;;;;;;11.07;7.95;;;5.70;99.90;;;;;;5135940;27;20227;-78
2022/01/23 00:38:11;;;;;;;8.35;7.20;;;5.70;99.90;;;;;;5134803;27;20437;-79
2022/01/23 00:40:39;;;;;;;10.93;7.40;;;5.70;99.90;;;;;;5134745;27;20099;-79
2022/01/23 00:43:26;;;;;;;9.90;7.47;;;5.70;99.90;;;;;;5134619;27;20039;-78
2022/01/23 00:46:07;;;;;;;12.35;8.13;;;5.70;99.90;;;;;;5136394;27;20585;-79
2022/01/23 00:48:36;;;;;;;10.60;7.32;;;5.70;99.90;;;;;;5126096;27;20092;-79
2022/01/23 00:51:01;;;;;;;12.63;7.32;;;5.70;99.90;;;;;;5136220;27;20110;-79
2022/01/23 00:53:27;;;;;;;11.10;7.47;;;5.70;99.90;;;;;;5134590;27;20476;-74
2022/01/23 00:55:53;;;;;;;10.50;7.70;;;5.70;99.90;;;;;;5135977;27;20039;-79
2022/01/23 00:58:19;;;;;;;8.43;7.22;;;5.70;99.90;;;;;;5128314;27;20043;-79
2022/01/23 01:00:44;;;;;;;10.18;7.80;;;5.70;99.90;;;;;;5128932;27;20773;-79
2022/01/23 01:03:10;;;;;;;9.60;8.05;;;5.70;99.90;;;;;;5135366;27;20468;-79
2022/01/23 01:05:36;;;;;;;10.48;7.68;;;5.70;99.90;;;;;;5135087;27;20053;-79
2022/01/23 01:08:04;;;;;;;12.43;7.57;;;5.70;99.90;;;;;;5130992;27;20065;-79
2022/01/23 01:11:01;;;;;;;11.05;7.88;;;5.70;99.90;;;;;;5135171;27;20046;-78
2022/01/23 01:13:21;;;;;;;12.68;8.27;;;5.70;99.90;;;;;;5128069;27;20090;-79
2022/01/23 01:32:29;;;;;;;11.90;8.63;;;5.60;99.90;;;;;;5130047;27;20110;-78
2022/01/23 01:35:05;;;;;;;13.27;8.30;;;5.60;99.90;;;;;;5135098;27;20055;-79
2022/01/23 01:37:30;;;;;;;14.27;8.50;;;5.60;99.90;;;;;;5124570;27;20408;-73
2022/01/23 01:39:56;;;;;;;12.80;8.38;;;5.60;99.90;;;;;;5127823;27;20039;-79
2022/01/23 01:42:22;;;;;;;13.95;8.32;;;5.60;99.90;;;;;;5133904;27;20043;-79
2022/01/23 01:44:47;;;;;;;13.23;8.65;;;5.60;99.90;;;;;;5134565;27;20047;-79
2022/01/23 01:47:13;;;;;;;13.20;8.60;;;5.60;99.90;;;;;;5133902;27;20399;-79
2022/01/23 01:49:39;;;;;;;13.75;8.90;;;5.60;99.90;;;;;;5123931;27;20043;-79
2022/01/23 01:52:05;;;;;;;12.98;9.45;;;5.60;99.90;;;;;;5134925;27;20050;-79
2022/01/23 01:54:32;;;;;;;11.95;8.43;;;5.60;99.90;;;;;;5133610;27;20059;-74
2022/01/23 01:57:06;;;;;;;16.45;9.40;;;5.60;99.90;;;;;;5133478;27;20515;-79
2022/01/23 02:09:56;;;;;;;9.55;7.80;;;5.60;99.90;;;;;;5123049;27;20078;-79
2022/01/23 02:18:33;;;;;;;12.98;9.13;;;5.60;99.90;;;;;;5050808;28;20052;-79
2022/01/23 02:57:08;;;;;;;12.60;9.90;;;5.50;99.90;;;;;;5133169;27;20054;-79
2022/01/23 02:59:37;;;;;;;16.10;10.07;;;5.50;99.90;;;;;;5134034;27;20096;-79
2022/01/23 03:04:40;;;;;;;15.52;11.43;;;5.50;99.90;;;;;;5118658;27;20086;-79
2022/01/23 03:15:22;;;;;;;15.20;10.82;;;5.60;99.90;;;;;;5133125;28;20100;-79
2022/01/23 03:29:01;;;;;;;14.25;10.63;;;5.60;99.90;;;;;;5112927;28;20048;-79
2022/01/23 03:31:33;;;;;;;14.55;11.48;;;5.60;99.90;;;;;;5121901;27;20054;-79
2022/01/23 03:33:59;;;;;;;15.18;11.93;;;5.60;99.90;;;;;;5136895;27;20085;-79
2022/01/23 03:36:25;;;;;;;15.63;11.38;;;5.60;99.90;;;;;;5136156;27;20038;-79
2022/01/23 03:38:51;;;;;;;15.75;11.30;;;5.60;99.90;;;;;;5136805;27;20039;-79
2022/01/23 03:41:17;;;;;;;16.70;11.45;;;5.60;99.90;;;;;;5131842;27;20044;-79
2022/01/23 03:43:43;;;;;;;19.48;12.30;;;5.50;99.90;;;;;;5133252;27;20035;-79
2022/01/23 03:51:15;;;;;;;17.05;12.13;;;5.50;99.90;;;;;;5119183;27;20079;-79
2022/01/23 03:53:42;;;;;;;15.07;11.52;;;5.60;99.90;;;;;;5136790;27;21298;-79
2022/01/23 03:56:08;;;;;;;17.92;12.35;;;5.60;99.90;;;;;;5135628;27;20205;-79
2022/01/23 03:58:34;;;;;;;17.85;12.45;;;5.50;99.90;;;;;;5136775;27;20047;-79
2022/01/23 04:01:01;;;;;;;19.48;12.35;;;5.50;99.90;;;;;;5136026;27;20143;-78
2022/01/23 04:03:27;;;;;;;19.35;12.88;;;5.60;99.90;;;;;;5136804;27;20077;-79
2022/01/23 04:05:53;;;;;;;19.40;12.88;;;5.50;99.90;;;;;;5136135;27;20035;-79
2022/01/23 04:08:20;;;;;;;17.77;12.68;;;5.50;99.90;;;;;;5135721;27;20069;-79
2022/01/23 04:10:46;;;;;;;19.77;12.77;;;5.60;99.90;;;;;;5135790;27;20043;-77
2022/01/23 04:15:49;;;;;;;17.40;12.43;;;5.60;99.90;;;;;;5122911;27;20081;-80
2022/01/23 04:21:15;;;;;;;17.15;12.52;;;5.50;99.90;;;;;;5136670;27;20055;-79
2022/01/23 05:04:17;;;;;;;23.50;15.90;;;5.50;99.90;;;;;;5114832;28;20052;-79
2022/01/23 05:06:56;;;;;;;23.45;14.93;;;5.60;99.90;;;;;;5122168;27;20403;-80
2022/01/23 05:09:22;;;;;;;22.55;14.85;;;5.50;99.90;;;;;;5135633;27;20039;-80
2022/01/23 05:11:54;;;;;;;25.83;16.30;;;5.50;99.90;;;;;;5129103;27;20130;-79
2022/01/23 05:14:28;;;;;;;28.95;16.65;;;5.60;99.90;;;;;;5115035;27;20036;-79
2022/01/23 05:16:54;;;;;;;29.55;15.70;;;5.60;99.90;;;;;;5125734;27;20167;-79
2022/01/23 05:19:20;;;;;;;27.10;16.10;;;5.60;99.90;;;;;;5125945;27;20054;-79
2022/01/23 05:24:19;;;;;;;26.58;16.42;;;5.60;99.90;;;;;;5122147;27;20046;-79
2022/01/23 05:26:46;;;;;;;25.75;16.00;;;5.60;99.90;;;;;;5132101;27;20172;-79
2022/01/23 05:29:13;;;;;;;25.60;16.33;;;5.60;99.90;;;;;;5133954;27;20047;-79
2022/01/23 05:31:40;;;;;;;27.00;16.33;;;5.60;99.90;;;;;;5135009;27;20104;-79
2022/01/23 05:34:06;;;;;;;29.35;17.08;;;5.60;99.90;;;;;;5133725;27;20488;-79
2022/01/23 05:36:32;;;;;;;27.60;16.17;;;5.60;99.90;;;;;;5135306;27;20119;-79
2022/01/23 05:38:58;;;;;;;25.08;15.60;;;5.60;99.90;;;;;;5134052;27;20488;-73
2022/01/23 05:41:25;;;;;;;25.65;16.23;;;5.60;99.90;;;;;;5135013;27;20088;-79
2022/01/23 05:43:50;;;;;;;28.95;16.55;;;5.60;99.90;;;;;;5133001;27;20042;-79
2022/01/23 05:46:17;;;;;;;29.67;15.93;;;5.60;99.90;;;;;;5133247;27;20126;-79
2022/01/23 05:48:43;;;;;;;28.42;16.25;;;5.60;99.90;;;;;;5132943;27;20062;-79
2022/01/23 05:51:12;;;;;;;30.65;17.00;;;5.60;99.90;;;;;;5134657;27;20043;-79
2022/01/23 05:53:41;;;;;;;31.25;17.42;;;5.50;99.90;;;;;;5125664;27;20075;-79
2022/01/23 05:56:07;;;;;;;29.80;16.40;;;5.60;99.90;;;;;;5133406;27;20051;-79
2022/01/23 05:58:33;;;;;;;28.75;16.77;;;5.60;99.90;;;;;;5129352;27;20396;-79
2022/01/23 06:00:58;;;;;;;31.23;16.45;;;5.50;99.90;;;;;;5117825;27;20052;-80
2022/01/23 06:03:24;;;;;;;30.55;16.73;;;5.50;99.90;;;;;;5118269;27;20031;-79
2022/01/23 06:05:50;;;;;;;32.72;17.70;;;5.50;99.90;;;;;;5134821;27;20039;-80
2022/01/23 06:08:15;;;;;;;29.25;16.73;;;5.50;99.90;;;;;;5132228;27;20049;-79
2022/01/23 06:10:54;;;;;;;32.55;17.60;;;5.50;99.90;;;;;;5160780;27;20043;-80
2022/01/23 06:13:20;;;;;;;36.65;17.95;;;5.50;99.90;;;;;;5132117;27;20106;-79
2022/01/23 06:15:47;;;;;;;41.08;18.92;;;5.50;99.90;;;;;;5134701;27;20131;-79
2022/01/23 06:18:12;;;;;;;33.90;17.77;;;5.50;99.90;;;;;;5132657;27;20060;-79
2022/01/23 06:20:38;;;;;;;38.33;18.50;;;5.50;99.90;;;;;;5134456;27;20055;-80
2022/01/23 06:23:04;;;;;;;36.83;18.65;;;5.50;99.90;;;;;;5133556;27;20046;-74
2022/01/23 06:25:35;;;;;;;35.78;17.70;;;5.50;99.90;;;;;;5113549;28;20039;-80
2022/01/23 06:28:04;;;;;;;35.40;18.08;;;5.50;99.90;;;;;;5116461;27;20035;-80
2022/01/23 06:30:31;;;;;;;40.03;19.15;;;5.50;99.90;;;;;;5112243;28;20078;-80
2022/01/23 06:32:57;;;;;;;40.83;19.23;;;5.50;99.90;;;;;;5123426;27;20051;-80
2022/01/23 06:35:23;;;;;;;44.15;18.67;;;5.50;99.90;;;;;;5133566;27;20045;-80
2022/01/23 06:37:48;;;;;;;44.58;20.05;;;5.50;99.90;;;;;;5133004;27;20078;-80
2022/01/23 06:40:14;;;;;;;42.22;19.38;;;5.50;99.90;;;;;;5130047;27;20114;-80
2022/01/23 06:42:40;;;;;;;38.50;18.58;;;5.50;99.90;;;;;;5130875;27;20088;-80
2022/01/23 06:45:06;;;;;;;42.67;18.55;;;5.50;99.90;;;;;;5132761;27;20558;-74
2022/01/23 06:47:32;;;;;;;40.97;18.98;;;5.50;99.90;;;;;;5132669;27;20062;-81
2022/01/23 06:49:58;;;;;;;36.05;17.60;;;5.50;99.90;;;;;;5115770;27;20476;-81
2022/01/23 06:52:24;;;;;;;36.67;17.67;;;5.50;99.90;;;;;;5120144;27;20039;-81
2022/01/23 06:54:50;;;;;;;38.42;19.23;;;5.50;99.90;;;;;;5132905;27;20062;-81
2022/01/23 06:57:15;;;;;;;38.38;17.80;;;5.50;99.90;;;;;;5133269;27;20055;-80
2022/01/23 06:59:41;;;;;;;42.22;18.83;;;5.50;99.90;;;;;;5119132;27;20518;-81
2022/01/23 07:02:08;;;;;;;42.55;17.88;;;5.50;99.90;;;;;;5113238;28;20056;-75
2022/01/23 07:04:34;;;;;;;34.30;17.25;;;5.50;99.90;;;;;;5123451;27;20043;-80
2022/01/23 07:07:00;;;;;;;38.00;18.55;;;5.50;99.90;;;;;;5132389;27;20476;-80
2022/01/23 07:09:26;;;;;;;36.00;18.52;;;5.50;99.90;;;;;;5129162;27;20043;-80
2022/01/23 07:11:51;;;;;;;35.72;17.35;;;5.50;99.90;;;;;;5119931;28;20502;-80
2022/01/23 07:14:17;;;;;;;32.47;16.63;;;5.50;99.90;;;;;;5119478;28;20039;-80
2022/01/23 07:16:43;;;;;;;33.47;17.17;;;5.50;99.90;;;;;;5125760;28;20043;-80
2022/01/23 07:19:09;;;;;;;31.38;16.63;;;5.50;99.90;;;;;;5123580;28;20053;-79
2022/01/23 07:21:34;;;;;;;34.22;18.00;;;5.50;99.90;;;;;;5126753;27;20502;-80
2022/01/23 07:24:00;;;;;;;34.58;17.27;;;5.50;99.90;;;;;;5119673;28;20100;-80
2022/01/23 07:26:27;;;;;;;33.17;16.80;;;5.50;99.90;;;;;;5131781;28;20043;-80
2022/01/23 07:28:56;;;;;;;35.65;17.15;;;5.50;99.90;;;;;;5133399;27;20105;-80
2022/01/23 07:32:22;;;;;;;31.13;16.52;;;5.50;99.90;;;;;;5128593;28;20051;-80
2022/01/23 07:34:16;;;;;;;34.63;18.27;;;5.50;99.90;;;;;;5105743;28;20388;-80
2022/01/23 07:36:42;;;;;;;28.30;16.67;;;5.50;99.90;;;;;;5164149;27;20109;-80
2022/01/23 07:39:08;;;;;;;28.38;16.67;;;5.50;99.90;;;;;;5132957;28;20047;-80
2022/01/23 07:41:34;;;;;;;30.08;17.80;;;5.50;99.90;;;;;;5131391;27;20070;-80
2022/01/23 07:43:59;;;;;;;27.20;16.10;;;5.50;99.90;;;;;;5129765;28;20043;-80
2022/01/23 07:46:26;;;;;;;30.45;16.70;;;5.50;99.90;;;;;;5117559;28;20046;-80
2022/01/23 07:48:51;;;;;;;30.77;17.48;;;5.50;99.90;;;;;;5131460;28;20511;-79
2022/01/23 07:51:17;;;;;;;30.30;17.02;;;5.50;99.90;;;;;;5131758;28;20083;-80
2022/01/23 07:53:43;;;;;;;30.45;17.33;;;5.50;99.90;;;;;;5132042;27;20047;-80
2022/01/23 07:56:08;;;;;;;30.40;17.10;;;5.50;99.90;;;;;;5132861;28;20063;-80
2022/01/23 07:58:34;;;;;;;30.63;16.95;;;5.50;99.90;;;;;;5128725;28;20042;-80
2022/01/23 08:01:00;;;;;;;31.67;16.95;;;5.50;99.90;;;;;;5129154;28;20380;-80
2022/01/23 08:03:26;;;;;;;27.83;16.88;;;5.60;99.90;;;;;;5114273;28;20039;-80
2022/01/23 08:05:51;;;;;;;32.60;17.27;;;5.60;99.90;;;;;;5128445;28;20071;-81
2022/01/23 08:08:17;;;;;;;31.45;17.25;;;5.60;99.90;;;;;;5126638;28;20075;-74
2022/01/23 08:10:43;;;;;;;28.38;17.33;;;5.60;99.90;;;;;;5131947;28;20493;-80
2022/01/23 08:13:08;;;;;;;29.67;17.42;;;5.60;99.90;;;;;;5131457;28;20046;-80
2022/01/23 08:15:34;;;;;;;27.20;17.33;;;5.70;99.90;;;;;;5131086;28;20491;-80
2022/01/23 08:18:05;;;;;;;27.42;16.90;;;5.60;99.90;;;;;;5133325;27;20039;-80
2022/01/23 08:20:33;;;;;;;27.90;16.10;;;5.60;99.90;;;;;;5136174;27;20049;-80
2022/01/23 08:23:01;;;;;;;26.25;15.32;;;5.70;99.90;;;;;;5135192;27;20069;-80
2022/01/23 08:25:28;;;;;;;25.08;16.20;;;5.70;99.90;;;;;;5136073;27;20118;-82
2022/01/23 08:27:54;;;;;;;24.00;15.48;;;5.70;99.90;;;;;;5136137;27;20043;-82
2022/01/23 08:30:21;;;;;;;25.13;15.38;;;5.70;99.90;;;;;;5118512;27;20130;-86
2022/01/23 08:32:46;;;;;;;26.35;16.08;;;5.80;99.90;;;;;;5122873;27;20181;-81
2022/01/23 08:35:12;;;;;;;24.15;15.55;;;5.70;99.90;;;;;;5136204;27;20543;-83
2022/01/23 08:37:38;;;;;;;23.58;15.68;;;5.80;99.90;;;;;;5128603;27;20127;-83
2022/01/23 08:40:16;;;;;;;19.55;14.02;;;5.80;99.90;;;;;;5135346;27;20069;-84
2022/01/23 08:42:42;;;;;;;22.85;13.90;;;5.90;99.90;;;;;;5134629;27;20055;-83
2022/01/23 08:45:08;;;;;;;21.35;13.82;;;5.90;99.90;;;;;;5136297;27;20099;-83
2022/01/23 08:47:33;;;;;;;23.58;14.00;;;5.90;99.90;;;;;;5125802;27;20048;-80
2022/01/23 08:49:59;;;;;;;19.10;13.48;;;5.90;99.90;;;;;;5135188;27;20047;-82
2022/01/23 08:52:25;;;;;;;20.83;13.43;;;6.00;99.90;;;;;;5136022;27;20472;-83
2022/01/23 08:54:56;;;;;;;17.17;12.45;;;6.00;99.90;;;;;;5133473;27;20487;-83
2022/01/23 08:57:23;;;;;;;19.63;13.55;;;6.00;99.90;;;;;;5134725;27;20475;-75
2022/01/23 08:59:49;;;;;;;18.95;12.95;;;6.10;99.90;;;;;;5134619;27;20055;-83
2022/01/23 09:02:17;;;;;;;16.63;12.52;;;6.10;99.90;;;;;;5134840;27;20059;-83
2022/01/23 09:04:45;;;;;;;20.02;13.65;;;6.10;99.90;;;;;;5134017;27;20039;-84
2022/01/23 09:07:10;;;;;;;19.25;12.75;;;6.10;99.90;;;;;;5128993;27;20484;-83
2022/01/23 09:09:38;;;;;;;19.30;13.45;;;6.20;99.90;;;;;;5122882;27;20100;-81
2022/01/23 09:12:26;;;;;;;19.40;13.63;;;6.20;99.90;;;;;;5136031;27;20441;-80
2022/01/23 09:14:51;;;;;;;18.02;13.45;;;6.20;99.90;;;;;;5134036;27;20155;-79
2022/01/23 09:17:17;;;;;;;16.90;12.35;;;6.30;99.90;;;;;;5135884;27;20480;-78
2022/01/23 09:19:46;;;;;;;19.13;12.55;;;6.30;99.90;;;;;;5144038;27;20043;-79
2022/01/23 09:22:13;;;;;;;15.57;12.43;;;6.30;99.90;;;;;;5135650;27;20043;-80
2022/01/23 09:24:38;;;;;;;16.00;12.35;;;6.40;99.90;;;;;;5131786;27;20118;-78
2022/01/23 09:27:07;;;;;;;13.38;11.18;;;6.40;99.90;;;;;;5114978;28;20124;-79
2022/01/23 09:29:40;;;;;;;14.50;11.20;;;6.40;99.90;;;;;;5128886;27;20047;-79
2022/01/23 09:32:13;;;;;;;12.90;10.75;;;6.50;99.90;;;;;;5117789;27;20057;-79
2022/01/23 09:34:41;;;;;;;13.60;10.85;;;6.50;99.90;;;;;;5130300;27;20047;-79
2022/01/23 09:37:10;;;;;;;14.75;11.15;;;6.50;99.90;;;;;;5133204;27;20047;-79
2022/01/23 09:39:37;;;;;;;12.30;9.90;;;6.60;99.90;;;;;;5154347;27;20122;-79
2022/01/23 09:42:07;;;;;;;12.02;10.10;;;6.60;99.90;;;;;;5150993;27;20035;-80
2022/01/23 09:45:04;;;;;;;13.45;9.93;;;6.60;99.90;;;;;;5155069;27;20411;-77
2022/01/23 09:47:30;;;;;;;11.73;10.20;;;6.70;99.90;;;;;;5103501;28;20114;-79
2022/01/23 09:50:00;;;;;;;13.68;10.80;;;6.70;99.90;;;;;;5114403;28;20051;-79
2022/01/23 09:52:29;;;;;;;13.53;10.77;;;6.70;99.90;;;;;;5122370;27;20079;-72
2022/01/23 09:54:59;;;;;;;12.63;10.55;;;6.80;99.90;;;;;;5134826;27;20051;-80
2022/01/23 09:57:30;;;;;;;12.13;9.80;;;6.80;99.90;;;;;;5144461;27;20483;-77
2022/01/23 09:59:57;;;;;;;13.10;10.32;;;6.80;99.90;;;;;;5128319;27;20540;-78
2022/01/23 10:02:23;;;;;;;11.65;10.02;;;6.80;99.90;;;;;;5132497;27;20042;-78
2022/01/23 10:04:53;;;;;;;11.75;10.05;;;6.90;99.90;;;;;;5135975;27;20122;-77
2022/01/23 10:07:20;;;;;;;10.73;9.63;;;6.90;99.90;;;;;;5138324;27;20043;-73
2022/01/23 10:09:52;;;;;;;10.90;9.30;;;7.00;99.90;;;;;;5122845;27;20119;-77
2022/01/23 10:12:19;;;;;;;12.88;10.43;;;7.00;99.90;;;;;;5128312;27;20050;-71
2022/01/23 10:14:45;;;;;;;10.82;9.13;;;7.00;99.90;;;;;;5127747;27;20535;-74
2022/01/23 10:17:10;;;;;;;8.88;7.70;;;7.00;99.90;;;;;;5129896;27;20047;-78
2022/01/23 10:19:38;;;;;;;8.55;7.28;;;7.00;99.90;;;;;;5128162;27;20385;-71
2022/01/23 10:22:06;;;;;;;10.73;9.48;;;7.00;99.90;;;;;;5130005;27;20050;-77
2022/01/23 10:24:32;;;;;;;12.10;9.73;;;7.00;99.90;;;;;;5129346;27;20580;-77
2022/01/23 10:26:59;;;;;;;11.63;10.38;;;7.00;99.90;;;;;;5131518;27;20472;-75
2022/01/23 10:29:33;;;;;;;13.82;12.02;;;7.10;99.90;;;;;;5123424;27;20040;-78
2022/01/23 10:32:12;;;;;;;11.57;10.38;;;7.10;99.90;;;;;;5111078;28;20062;-77
2022/01/23 10:34:57;;;;;;;11.73;10.52;;;7.20;99.90;;;;;;5116556;27;20035;-78
2022/01/23 10:37:34;;;;;;;12.00;10.25;;;7.20;99.90;;;;;;5131531;27;20741;-78
2022/01/23 10:40:10;;;;;;;12.73;11.27;;;7.20;99.90;;;;;;5128205;27;20112;-77
2022/01/23 10:51:17;;;;;;;11.15;10.05;;;7.30;99.90;;;;;;5128765;27;20061;-75
2022/01/23 10:54:11;;;;;;;11.25;10.00;;;7.40;99.90;;;;;;5126988;27;20107;-78
2022/01/23 10:56:55;;;;;;;12.95;10.68;;;7.40;99.90;;;;;;5109283;28;20552;-77
2022/01/23 10:59:22;;;;;;;12.20;9.88;;;7.40;99.90;;;;;;5116075;27;20035;-78
2022/01/23 11:02:08;;;;;;;10.80;9.57;;;7.40;99.90;;;;;;5117908;27;20118;-74
2022/01/23 11:04:50;;;;;;;11.77;9.65;;;7.50;99.90;;;;;;5115886;27;20047;-72
2022/01/23 11:07:17;;;;;;;9.50;8.57;;;7.50;99.90;;;;;;5131042;27;20581;-78
2022/01/23 11:09:42;;;;;;;9.57;8.57;;;7.50;99.90;;;;;;5129113;27;20053;-73
2022/01/23 11:12:27;;;;;;;11.45;10.18;;;7.60;99.90;;;;;;5129101;27;20055;-78
2022/01/23 11:17:51;;;;;;;8.68;7.45;;;7.70;99.90;;;;;;5130152;27;20080;-79
2022/01/23 11:20:35;;;;;;;;;;;7.60;99.90;;;;;;5117944;28;20075;-69
2022/01/23 11:23:27;;;;;;;9.63;7.90;;;7.60;99.90;;;;;;5122454;28;19926;-78
2022/01/23 11:25:56;;;;;;;8.43;7.60;;;7.70;99.90;;;;;;5120375;28;20268;-71
2022/01/23 11:28:31;;;;;;;9.23;7.75;;;7.70;99.90;;;;;;5133607;28;20043;-72
2022/01/23 11:30:57;;;;;;;7.47;6.78;;;7.70;99.90;;;;;;5116115;27;20400;-75
2022/01/23 11:33:23;;;;;;;7.35;6.57;;;7.70;99.90;;;;;;5112959;28;20036;-80
2022/01/23 11:35:49;;;;;;;8.07;7.13;;;7.80;99.90;;;;;;5128561;28;20044;-80
2022/01/23 11:38:19;;;;;;;7.60;6.80;;;7.70;99.90;;;;;;5120908;27;20377;-78
2022/01/23 11:54:37;;;;;;;7.82;6.50;;;7.70;99.90;;;;;;5137294;27;20492;-76
2022/01/23 11:57:03;;;;;;;7.18;6.40;;;7.70;99.90;;;;;;5137626;27;20487;-76
2022/01/23 11:59:42;;;;;;;8.40;6.85;;;7.70;99.90;;;;;;5137461;27;20134;-76
2022/01/23 12:04:37;;;;;;;4.88;4.40;;;7.70;99.90;;;;;;5136966;27;20039;-77
2022/01/23 12:07:12;;;;;;;3.85;2.60;;;7.70;99.90;;;;;;5137120;27;20035;-77
2022/01/23 12:09:39;;;;;;;6.50;5.85;;;7.70;99.90;;;;;;5137196;27;20559;-77
2022/01/23 12:12:38;;;;;;;6.78;6.15;;;7.60;99.90;;;;;;5136652;27;20123;-76
2022/01/23 12:18:18;;;;;;;7.85;6.65;;;7.60;99.90;;;;;;5136580;27;20073;-76
2022/01/23 12:20:46;;;;;;;6.68;6.00;;;7.50;99.90;;;;;;5136156;27;20403;-77
2022/01/23 12:23:14;;;;;;;6.28;4.78;;;7.50;99.90;;;;;;5136952;27;20095;-76
2022/01/23 12:25:47;;;;;;;8.02;6.55;;;7.50;99.90;;;;;;5136882;27;20057;-72
2022/01/23 12:28:20;;;;;;;7.82;6.72;;;7.50;99.90;;;;;;5136876;27;20051;-76
2022/01/23 12:30:51;;;;;;;7.95;6.60;;;7.50;99.90;;;;;;5136644;27;20055;-76
2022/01/23 12:33:21;;;;;;;;;;;7.50;99.90;;;;;;5137527;27;20035;-76
2022/01/23 12:35:51;;;;;;;5.78;4.50;;;7.50;99.90;;;;;;5135859;27;20005;-76
2022/01/23 12:38:18;;;;;;;4.82;4.05;;;7.50;99.90;;;;;;5136751;27;20080;-76
2022/01/23 12:40:48;;;;;;;4.93;4.43;;;7.40;99.90;;;;;;5136241;27;20413;-75
2022/01/23 12:43:15;;;;;;;4.65;4.00;;;7.40;99.90;;;;;;5136598;27;20085;-77
2022/01/23 12:45:52;;;;;;;6.25;5.30;;;7.40;99.90;;;;;;5136558;27;20573;-77
2022/01/23 12:48:27;;;;;;;1.88;1.60;;;7.40;99.90;;;;;;5136601;27;20051;-77
2022/01/23 12:51:14;;;;;;;1.80;1.70;;;7.40;99.90;;;;;;5135476;27;20496;-76
2022/01/23 12:53:48;;;;;;;1.60;1.50;;;7.30;99.90;;;;;;5136107;27;20562;-76
2022/01/23 12:56:23;;;;;;;2.22;1.90;;;7.30;99.90;;;;;;5136398;27;20054;-77
2022/01/23 12:59:06;;;;;;;1.60;1.50;;;7.30;99.90;;;;;;5136148;27;20063;-76
2022/01/23 13:01:32;;;;;;;1.83;1.40;;;7.30;99.90;;;;;;5136593;27;20399;-77
2022/01/23 13:04:04;;;;;;;2.33;2.05;;;7.30;99.90;;;;;;5135617;27;20043;-76
2022/01/23 13:06:30;;;;;;;2.22;1.60;;;7.20;99.90;;;;;;5135823;27;20114;-76
2022/01/23 13:09:42;;;;;;;3.08;2.78;;;7.20;99.90;;;;;;5135690;27;20154;-76
2022/01/23 13:26:34;;;;;;;6.47;5.78;;;7.10;99.90;;;;;;5135812;27;20058;-77
2022/01/23 13:31:45;;;;;;;6.38;5.78;;;7.10;99.90;;;;;;5136163;27;20074;-76
2022/01/23 13:34:33;;;;;;;6.32;5.63;;;7.10;99.90;;;;;;5135227;27;20046;-76
2022/01/23 13:37:12;;;;;;;6.38;5.70;;;7.10;99.90;;;;;;5124945;27;20089;-76
2022/01/23 13:39:56;;;;;;;7.30;6.60;;;7.10;99.90;;;;;;5135943;27;20399;-76
2022/01/23 13:59:49;;;;;;;2.70;2.50;;;7.00;99.90;;;;;;5134511;27;20416;-76
2022/01/23 14:02:34;;;;;;;3.10;2.35;;;7.00;99.90;;;;;;5134789;27;20047;-77
2022/01/23 14:05:15;;;;;;;2.42;2.00;;;7.00;99.90;;;;;;5134590;27;20047;-77
2022/01/23 14:07:46;;;;;;;2.85;2.15;;;7.00;99.90;;;;;;5135104;27;20043;-77
2022/01/23 14:10:33;;;;;;;1.90;1.70;;;7.00;99.90;;;;;;5133783;27;20334;-77
2022/01/23 14:13:11;;;;;;;2.90;1.55;;;6.90;99.90;;;;;;5134513;27;20396;-76
2022/01/23 14:15:47;;;;;;;2.03;1.40;;;6.90;99.90;;;;;;5134497;27;20053;-77
2022/01/23 14:18:19;;;;;;;1.98;1.77;;;6.90;99.90;;;;;;5134372;27;20047;-76
2022/01/23 14:20:58;;;;;;;2.13;1.83;;;6.90;99.90;;;;;;5155573;27;20046;-76
2022/01/23 14:23:27;;;;;;;2.03;1.83;;;6.90;99.90;;;;;;5155622;27;20042;-76
2022/01/23 14:26:00;;;;;;;2.25;2.05;;;6.80;99.90;;;;;;5155368;27;20050;-77
2022/01/23 14:28:35;;;;;;;2.85;1.92;;;6.80;99.90;;;;;;5155466;27;20051;-76
2022/01/23 14:31:19;;;;;;;2.22;1.70;;;6.80;99.90;;;;;;5135371;27;20051;-76
2022/01/23 14:33:51;;;;;;;2.35;1.85;;;6.80;99.90;;;;;;5134680;27;20039;-77
2022/01/23 14:36:23;;;;;;;1.70;1.60;;;6.80;99.90;;;;;;5134124;27;20055;-76
2022/01/23 14:39:09;;;;;;;2.45;1.98;;;6.80;99.90;;;;;;5134662;27;20086;-76
2022/01/23 14:41:40;;;;;;;2.35;1.73;;;6.80;99.90;;;;;;5152461;27;20453;-76
2022/01/23 14:44:24;;;;;;;1.85;1.70;;;6.80;99.90;;;;;;5140407;27;20092;-78
2022/01/23 14:46:55;;;;;;;2.22;1.83;;;6.80;99.90;;;;;;5131610;27;20123;-82
2022/01/23 14:49:27;;;;;;;2.00;1.63;;;6.80;99.90;;;;;;5113617;27;20051;-80
2022/01/23 14:51:55;;;;;;;1.90;1.70;;;6.80;99.90;;;;;;5132212;27;20548;-79
2022/01/23 14:54:24;;;;;;;1.80;1.70;;;6.80;99.90;;;;;;5133199;27;20058;-79
2022/01/23 14:56:49;;;;;;;2.25;1.60;;;6.80;99.90;;;;;;5132757;27;20483;-78
2022/01/23 14:59:16;;;;;;;1.85;1.70;;;6.70;99.90;;;;;;5124910;27;20181;-80
2022/01/23 15:01:44;;;;;;;2.03;1.63;;;6.80;99.90;;;;;;5143487;27;20043;-80
2022/01/23 15:04:12;;;;;;;2.00;1.80;;;6.80;99.90;;;;;;5112319;28;20050;-81
2022/01/23 15:06:48;;;;;;;2.00;1.80;;;6.70;99.90;;;;;;5112884;28;20047;-81
2022/01/23 15:09:16;;;;;;;2.58;1.90;;;6.70;99.90;;;;;;5113854;28;20055;-81
2022/01/23 15:11:42;;;;;;;2.50;1.70;;;6.70;99.90;;;;;;5132833;27;20042;-81
2022/01/23 15:14:10;;;;;;;2.20;2.00;;;6.70;99.90;;;;;;5131886;27;20095;-79
2022/01/23 15:16:36;;;;;;;2.10;1.90;;;6.70;99.90;;;;;;5133114;27;20046;-81
2022/01/23 15:19:04;;;;;;;1.75;1.65;;;6.70;99.90;;;;;;5130932;27;20044;-74
2022/01/23 15:21:30;;;;;;;2.58;1.80;;;6.70;99.90;;;;;;5118254;27;20060;-78
2022/01/23 15:23:56;;;;;;;2.05;1.83;;;6.60;99.90;;;;;;5130279;27;20039;-80
2022/01/23 15:26:24;;;;;;;2.63;1.70;;;6.60;99.90;;;;;;5131430;27;20043;-80
2022/01/23 15:28:50;;;;;;;3.28;1.85;;;6.60;99.90;;;;;;5133873;27;20078;-79
2022/01/23 15:31:16;;;;;;;2.03;1.80;;;6.60;99.90;;;;;;5134428;27;20504;-80
2022/01/23 15:33:42;;;;;;;2.97;2.20;;;6.60;99.90;;;;;;5132988;27;20039;-79
2022/01/23 15:36:08;;;;;;;2.30;2.10;;;6.60;99.90;;;;;;5131815;27;20110;-80
2022/01/23 15:38:36;;;;;;;2.28;2.08;;;6.60;99.90;;;;;;5132334;27;20118;-80
2022/01/23 15:41:02;;;;;;;2.80;2.20;;;6.60;99.90;;;;;;5135834;27;20039;-80
2022/01/23 15:43:28;;;;;;;2.75;2.47;;;6.60;99.90;;;;;;5136144;27;20041;-79
2022/01/23 15:45:54;;;;;;;2.80;2.45;;;6.60;99.90;;;;;;5131952;27;20039;-80
2022/01/23 15:48:20;;;;;;;2.60;2.40;;;6.60;99.90;;;;;;5135208;27;20536;-80
2022/01/23 15:50:46;;;;;;;2.63;2.42;;;6.50;99.90;;;;;;5130779;27;20476;-80
2022/01/23 15:53:11;;;;;;;2.63;2.42;;;6.50;99.90;;;;;;5132291;27;20038;-80
2022/01/23 15:55:38;;;;;;;3.38;2.40;;;6.50;99.90;;;;;;5136769;27;20043;-80
2022/01/23 15:58:04;;;;;;;2.90;2.60;;;6.50;99.90;;;;;;5140499;27;20050;-80
2022/01/23 16:00:32;;;;;;;2.65;2.45;;;6.50;99.90;;;;;;5123636;27;20035;-81
2022/01/23 16:02:58;;;;;;;2.67;2.45;;;6.50;99.90;;;;;;5124005;27;20051;-80
2022/01/23 16:05:24;;;;;;;4.07;2.60;;;6.50;99.90;;;;;;5136594;27;20441;-79
2022/01/23 16:07:49;;;;;;;24.48;17.88;;;6.40;99.90;;;;;;5131657;27;20043;-80
2022/01/23 16:10:15;;;;;;;13.23;10.63;;;6.40;99.90;;;;;;5124349;27;20088;-81
2022/01/23 16:12:42;;;;;;;3.50;3.20;;;6.40;99.90;;;;;;5116256;27;20044;-80
2022/01/23 16:15:14;;;;;;;3.15;2.85;;;6.40;99.90;;;;;;5134293;27;20043;-74
2022/01/23 16:17:40;;;;;;;3.97;3.55;;;6.40;99.90;;;;;;5131042;27;20043;-80
2022/01/23 16:20:08;;;;;;;3.13;2.83;;;6.40;99.90;;;;;;5133444;27;20715;-79
2022/01/23 16:22:34;;;;;;;3.33;3.03;;;6.40;99.90;;;;;;5134750;27;20058;-76
2022/01/23 16:25:00;;;;;;;3.00;2.67;;;6.40;99.90;;;;;;5134596;27;20071;-76
2022/01/23 16:27:25;;;;;;;3.25;2.95;;;6.40;99.90;;;;;;5134492;27;20069;-76
2022/01/23 16:29:51;;;;;;;3.78;3.20;;;6.40;99.90;;;;;;5135583;27;20035;-76
2022/01/23 16:32:17;;;;;;;3.80;3.40;;;6.40;99.90;;;;;;5134588;27;20039;-77
2022/01/23 16:34:43;;;;;;;3.17;2.88;;;6.40;99.90;;;;;;5136062;27;20480;-77